Time;durP1;ratioP1;P1;durP2;ratioP2;P2;SDS_P1;SDS_P2;PMS_P1;PMS_P2;Temp;Humidity;BMP_temperature;BMP_pressure;BME280_temperature;BME280_humidity;BME280_pressure;Samples;Min_cycle;Max_cycle;Signal;HPM_P1;HPM_P2
2023/05/10 04:01:48;;;;;;;0.60;0.10;;;13.90;1.00;;;;;;5454627;23;20493;-77
2023/05/10 04:04:18;;;;;;;0.60;0.10;;;13.90;1.00;;;;;;4969811;28;20461;-77
2023/05/10 04:06:46;;;;;;;0.50;0.10;;;13.90;1.00;;;;;;4974249;28;21027;-77
2023/05/10 04:09:14;;;;;;;0.60;0.10;;;13.90;1.00;;;;;;4985973;28;21046;-78
2023/05/10 04:11:42;;;;;;;0.60;0.10;;;13.90;1.00;;;;;;4971558;28;20475;-78
2023/05/10 04:14:10;;;;;;;2.87;0.70;;;13.90;1.00;;;;;;4964827;28;20486;-79
2023/05/10 04:16:37;;;;;;;0.60;0.20;;;14.00;1.00;;;;;;4996338;23;20505;-70
2023/05/10 04:19:07;;;;;;;1.63;0.30;;;14.10;1.00;;;;;;4986155;28;20487;-70
2023/05/10 04:21:35;;;;;;;0.60;0.10;;;14.00;1.00;;;;;;4984098;28;20447;-70
2023/05/10 04:24:02;;;;;;;0.60;0.10;;;14.10;1.00;;;;;;4975730;28;20444;-69
2023/05/10 04:26:31;;;;;;;0.60;0.20;;;14.00;1.00;;;;;;4975930;28;20603;-69
2023/05/10 04:28:58;;;;;;;0.60;0.10;;;14.10;1.00;;;;;;4975576;28;21004;-69
2023/05/10 04:31:27;;;;;;;0.60;0.10;;;14.20;1.00;;;;;;4973544;28;20462;-69
2023/05/10 04:33:55;;;;;;;0.53;0.10;;;14.20;1.00;;;;;;4970600;28;20458;-69
2023/05/10 04:36:24;;;;;;;0.60;0.10;;;14.30;1.00;;;;;;4970386;28;20562;-69
2023/05/10 04:38:52;;;;;;;0.60;0.30;;;14.20;1.00;;;;;;4973420;28;20466;-70
2023/05/10 04:41:21;;;;;;;0.67;0.33;;;;;;;;;;4972001;28;20929;-70
2023/05/10 04:43:49;;;;;;;0.60;0.10;;;14.20;1.00;;;;;;4974632;28;20461;-70
2023/05/10 04:46:17;;;;;;;0.60;0.10;;;14.30;1.00;;;;;;4967915;28;20493;-69
2023/05/10 04:48:45;;;;;;;0.60;0.10;;;14.20;1.00;;;;;;4974808;28;20488;-69
2023/05/10 04:51:13;;;;;;;0.60;0.10;;;14.30;1.00;;;;;;4975545;28;20464;-69
2023/05/10 04:53:42;;;;;;;1.23;1.13;;;14.40;1.00;;;;;;4975408;28;20454;-70
2023/05/10 04:56:24;;;;;;;0.60;0.10;;;14.30;1.00;;;;;;4972732;28;20508;-69
2023/05/10 04:58:52;;;;;;;0.50;0.10;;;14.20;1.00;;;;;;4982986;28;20513;-68
2023/05/10 05:01:19;;;;;;;0.60;0.20;;;14.30;1.00;;;;;;4981899;28;20817;-69
2023/05/10 05:03:47;;;;;;;0.60;0.20;;;14.40;1.00;;;;;;4974678;28;20450;-70
2023/05/10 05:06:15;;;;;;;0.60;0.40;;;14.40;1.00;;;;;;4967198;28;20842;-70
2023/05/10 05:08:44;;;;;;;0.90;0.60;;;14.40;1.00;;;;;;4975042;28;20479;-71
2023/05/10 05:11:13;;;;;;;0.80;0.50;;;;;;;;;;4974903;28;20470;-71
2023/05/10 05:13:40;;;;;;;0.60;0.20;;;14.30;1.00;;;;;;4974066;28;20868;-69
2023/05/10 05:16:08;;;;;;;0.60;0.30;;;14.30;1.00;;;;;;4975087;28;20477;-69
2023/05/10 05:18:36;;;;;;;1.27;1.13;;;14.20;1.00;;;;;;4974729;28;20971;-70
2023/05/10 05:21:04;;;;;;;0.70;0.37;;;14.20;1.00;;;;;;4971497;28;20474;-71
2023/05/10 05:23:32;;;;;;;0.60;0.10;;;14.20;1.00;;;;;;4972145;28;20443;-70
2023/05/10 05:26:01;;;;;;;0.60;0.10;;;14.20;1.00;;;;;;4974267;28;20475;-69
2023/05/10 05:28:32;;;;;;;1.03;0.60;;;14.30;1.00;;;;;;4974731;28;20484;-69
2023/05/10 05:31:00;;;;;;;0.60;0.20;;;14.30;1.00;;;;;;4974789;28;20552;-68
2023/05/10 05:33:28;;;;;;;0.60;0.20;;;14.40;1.00;;;;;;4973494;28;20532;-69
2023/05/10 05:35:56;;;;;;;0.60;0.10;;;14.40;1.00;;;;;;4971721;28;20477;-69
2023/05/10 05:38:24;;;;;;;0.60;0.10;;;;;;;;;;4983241;28;20461;-72
2023/05/10 05:40:52;;;;;;;1.17;0.50;;;14.40;1.00;;;;;;4981843;28;20445;-68
2023/05/10 05:43:21;;;;;;;0.60;0.13;;;14.40;1.00;;;;;;4981350;28;20459;-68
2023/05/10 05:45:49;;;;;;;0.60;0.30;;;14.50;1.00;;;;;;4988541;28;20469;-71
2023/05/10 05:48:17;;;;;;;0.60;0.10;;;14.60;1.00;;;;;;4986944;28;20474;-69
2023/05/10 05:50:45;;;;;;;0.60;0.10;;;14.60;1.00;;;;;;4983940;28;20923;-69
2023/05/10 05:53:13;;;;;;;0.60;0.10;;;14.70;1.00;;;;;;4991962;28;20454;-70
2023/05/10 05:55:40;;;;;;;0.80;0.40;;;14.60;1.00;;;;;;4989389;28;20474;-73
2023/05/10 05:58:09;;;;;;;0.60;0.10;;;;;;;;;;4973716;28;20465;-70
2023/05/10 06:00:38;;;;;;;0.60;0.10;;;14.60;1.00;;;;;;4973559;28;20448;-69
2023/05/10 06:03:06;;;;;;;0.60;0.33;;;14.70;1.00;;;;;;4972718;28;20832;-69
2023/05/10 06:05:34;;;;;;;0.60;0.10;;;14.60;1.00;;;;;;4971512;28;20476;-73
2023/05/10 06:08:02;;;;;;;0.60;0.10;;;14.60;1.00;;;;;;4973568;28;20446;-70
2023/05/10 06:10:30;;;;;;;0.60;0.10;;;14.60;1.00;;;;;;4973983;28;20480;-69
2023/05/10 06:12:58;;;;;;;1.30;0.30;;;14.60;1.00;;;;;;4973111;28;20457;-70
2023/05/10 06:15:26;;;;;;;0.60;0.13;;;14.60;1.00;;;;;;4973561;28;21036;-68
2023/05/10 06:17:55;;;;;;;0.80;0.43;;;14.60;1.00;;;;;;4973332;28;20512;-69
2023/05/10 06:20:23;;;;;;;1.17;0.60;;;;;;;;;;4973748;28;20451;-70
2023/05/10 06:22:51;;;;;;;1.23;0.77;;;;;;;;;;4973426;28;20454;-70
2023/05/10 06:25:19;;;;;;;5.90;2.07;;;14.20;1.00;;;;;;4973540;28;20798;-70
2023/05/10 06:27:47;;;;;;;0.60;0.27;;;14.10;1.00;;;;;;4973584;28;21033;-71
2023/05/10 06:30:22;;;;;;;0.67;0.40;;;14.00;1.00;;;;;;4972903;28;20499;-71
2023/05/10 06:32:50;;;;;;;0.60;0.30;;;14.10;1.00;;;;;;4957167;28;20487;-70
2023/05/10 06:35:19;;;;;;;1.03;0.53;;;14.10;1.00;;;;;;4971168;28;20556;-72
2023/05/10 06:37:47;;;;;;;0.70;0.27;;;14.10;1.00;;;;;;4973394;28;20750;-71
2023/05/10 06:40:16;;;;;;;1.10;0.87;;;;;;;;;;4973076;28;20520;-68
2023/05/10 06:42:44;;;;;;;0.60;0.10;;;14.40;1.00;;;;;;4972692;28;20457;-72
2023/05/10 06:45:12;;;;;;;0.80;0.20;;;14.50;1.00;;;;;;4972960;28;21008;-69
2023/05/10 06:47:41;;;;;;;0.60;0.20;;;14.50;1.00;;;;;;4973150;28;20827;-70
2023/05/10 06:50:11;;;;;;;0.60;0.10;;;;;;;;;;4972873;28;20483;-69
2023/05/10 06:52:40;;;;;;;0.60;0.30;;;14.70;1.00;;;;;;4972895;28;20473;-71
2023/05/10 06:55:09;;;;;;;0.70;0.20;;;14.80;1.00;;;;;;4972274;28;20457;-70
2023/05/10 06:57:37;;;;;;;0.60;0.10;;;14.90;1.00;;;;;;4972565;28;20438;-70
2023/05/10 07:00:06;;;;;;;0.60;0.10;;;14.90;1.00;;;;;;4973396;28;20447;-69
2023/05/10 07:02:34;;;;;;;0.60;0.10;;;14.90;1.00;;;;;;4973616;28;20814;-69
2023/05/10 07:05:02;;;;;;;0.80;0.50;;;15.00;1.00;;;;;;4974793;28;20546;-69
2023/05/10 07:07:31;;;;;;;0.60;0.10;;;14.90;1.00;;;;;;4972932;28;20520;-70
2023/05/10 07:10:00;;;;;;;0.93;0.43;;;14.90;1.00;;;;;;4972367;28;20488;-71
2023/05/10 07:12:28;;;;;;;0.90;0.40;;;;;;;;;;4972642;28;20464;-73
2023/05/10 07:14:56;;;;;;;0.60;0.30;;;14.90;1.00;;;;;;4972946;28;20499;-69
2023/05/10 07:17:24;;;;;;;0.70;0.40;;;14.90;99.90;;;;;;4972645;28;20562;-69
2023/05/10 07:19:52;;;;;;;1.43;0.80;;;14.80;99.90;;;;;;4971103;28;20516;-71
2023/05/10 07:22:20;;;;;;;0.60;0.30;;;14.90;99.90;;;;;;4971734;28;20459;-70
2023/05/10 07:24:48;;;;;;;0.87;0.40;;;15.00;99.90;;;;;;4972970;28;20483;-70
2023/05/10 07:27:17;;;;;;;0.60;0.10;;;15.00;99.90;;;;;;4972546;28;20471;-70
2023/05/10 07:29:45;;;;;;;1.70;0.93;;;;;;;;;;4972248;28;20500;-71
2023/05/10 07:32:13;;;;;;;0.60;0.20;;;14.90;99.90;;;;;;4971555;28;20952;-70
2023/05/10 07:34:41;;;;;;;0.60;0.20;;;15.00;99.90;;;;;;4972397;28;20807;-71
2023/05/10 07:37:09;;;;;;;0.60;0.37;;;;;;;;;;4972162;28;20472;-73
2023/05/10 07:39:37;;;;;;;0.60;0.10;;;15.00;99.90;;;;;;4972223;28;20953;-71
2023/05/10 07:42:05;;;;;;;0.80;0.30;;;15.00;99.90;;;;;;4972225;28;20475;-73
2023/05/10 07:44:34;;;;;;;0.60;0.33;;;15.00;99.90;;;;;;4974972;28;20878;-70
2023/05/10 07:47:02;;;;;;;0.60;0.20;;;15.10;99.90;;;;;;4976311;28;20491;-69
2023/05/10 07:49:30;;;;;;;0.90;0.30;;;15.10;99.90;;;;;;4976129;28;20845;-70
2023/05/10 07:51:58;;;;;;;0.70;0.50;;;;;;;;;;4976008;28;20445;-70
2023/05/10 07:54:26;;;;;;;0.60;0.10;;;15.20;99.90;;;;;;4975680;28;20747;-69
2023/05/10 07:56:54;;;;;;;0.70;0.20;;;15.10;99.90;;;;;;4976087;28;20478;-72
2023/05/10 07:59:22;;;;;;;1.53;0.50;;;15.30;99.90;;;;;;4976120;28;20449;-73
2023/05/10 08:01:51;;;;;;;0.70;0.20;;;15.40;99.90;;;;;;4976130;28;20509;-69
2023/05/10 08:04:18;;;;;;;2.03;0.90;;;15.40;99.90;;;;;;4975654;28;20478;-70
2023/05/10 08:06:46;;;;;;;1.47;1.37;;;15.50;99.90;;;;;;4976437;28;20476;-69
2023/05/10 08:09:14;;;;;;;0.60;0.20;;;15.50;99.90;;;;;;4976111;28;20514;-70
2023/05/10 08:11:42;;;;;;;1.00;0.20;;;15.60;99.90;;;;;;4975890;28;20444;-70
2023/05/10 08:14:10;;;;;;;0.90;0.33;;;15.60;99.90;;;;;;4977632;28;20465;-73
2023/05/10 08:16:38;;;;;;;0.60;0.10;;;15.60;99.90;;;;;;4975530;28;20546;-70
2023/05/10 08:19:07;;;;;;;1.33;0.90;;;15.70;99.90;;;;;;4976155;28;20977;-69
2023/05/10 08:21:35;;;;;;;0.60;0.33;;;15.50;99.90;;;;;;4975772;28;20447;-70
2023/05/10 08:24:05;;;;;;;1.80;0.70;;;;;;;;;;4975426;28;20936;-73
2023/05/10 08:26:34;;;;;;;0.60;0.10;;;15.90;99.90;;;;;;4975280;28;20480;-70
2023/05/10 08:29:02;;;;;;;0.60;0.10;;;16.00;99.90;;;;;;4975886;28;20549;-69
2023/05/10 08:31:30;;;;;;;3.73;0.33;;;16.10;99.90;;;;;;4975821;28;20565;-69
2023/05/10 08:33:58;;;;;;;0.60;0.10;;;16.20;99.90;;;;;;4975335;28;20820;-69
2023/05/10 08:36:27;;;;;;;0.70;0.40;;;16.20;99.90;;;;;;4975478;28;20467;-69
2023/05/10 08:38:55;;;;;;;0.87;0.40;;;16.20;99.90;;;;;;4974843;28;20481;-71
2023/05/10 08:41:25;;;;;;;0.60;0.20;;;16.20;99.90;;;;;;4975523;28;20877;-72
2023/05/10 08:43:54;;;;;;;0.97;0.73;;;16.20;99.90;;;;;;4974749;28;20454;-71
2023/05/10 08:46:23;;;;;;;0.60;0.10;;;16.40;99.90;;;;;;4975175;28;21044;-69
2023/05/10 08:48:52;;;;;;;0.60;0.10;;;16.40;99.90;;;;;;4975125;28;20451;-73
2023/05/10 08:51:23;;;;;;;0.70;0.40;;;16.50;99.90;;;;;;4974854;28;20512;-69
2023/05/10 08:53:53;;;;;;;1.40;0.83;;;16.30;99.90;;;;;;4974881;28;20460;-70
2023/05/10 08:56:21;;;;;;;0.70;0.40;;;16.10;99.90;;;;;;4973818;28;20553;-70
2023/05/10 08:58:49;;;;;;;1.10;0.70;;;16.00;99.90;;;;;;4974763;28;20460;-70
2023/05/10 09:01:19;;;;;;;0.90;0.90;;;15.90;99.90;;;;;;4975334;28;20469;-69
2023/05/10 09:03:48;;;;;;;0.70;0.50;;;15.70;99.90;;;;;;4974827;28;20486;-70
2023/05/10 09:06:16;;;;;;;0.60;0.20;;;15.70;99.90;;;;;;4975158;28;20506;-69
2023/05/10 09:08:45;;;;;;;0.60;0.20;;;15.70;99.90;;;;;;4974298;28;20471;-74
2023/05/10 09:11:15;;;;;;;0.60;0.30;;;15.80;99.90;;;;;;4974636;28;20542;-69
2023/05/10 09:13:43;;;;;;;0.60;0.10;;;15.80;99.90;;;;;;4974515;28;20447;-70
2023/05/10 09:16:11;;;;;;;0.90;0.30;;;15.80;99.90;;;;;;4974745;28;20480;-72
2023/05/10 09:18:49;;;;;;;0.60;0.10;;;15.90;99.90;;;;;;4974559;28;20535;-70
2023/05/10 09:21:17;;;;;;;0.70;0.40;;;16.00;99.90;;;;;;4974287;28;20813;-70
2023/05/10 09:23:46;;;;;;;0.60;0.10;;;16.10;99.90;;;;;;4974443;28;20470;-69
2023/05/10 09:26:17;;;;;;;0.60;0.30;;;16.10;99.90;;;;;;4974892;28;20555;-68
2023/05/10 09:28:52;;;;;;;1.07;0.40;;;16.20;99.90;;;;;;4974449;28;20484;-68
2023/05/10 09:31:20;;;;;;;0.60;0.20;;;16.10;99.90;;;;;;4966719;28;20993;-71
2023/05/10 09:33:49;;;;;;;0.70;0.47;;;16.20;99.90;;;;;;4974042;28;21028;-70
2023/05/10 09:36:18;;;;;;;0.60;0.10;;;16.20;99.90;;;;;;4974280;28;20466;-68
2023/05/10 09:38:47;;;;;;;0.70;0.30;;;16.20;99.90;;;;;;4974449;28;20452;-69
2023/05/10 09:41:20;;;;;;;0.60;0.13;;;16.30;99.90;;;;;;4974406;28;20460;-71
2023/05/10 09:43:49;;;;;;;0.70;0.60;;;16.40;99.90;;;;;;4973917;28;20536;-70
2023/05/10 09:46:17;;;;;;;0.60;0.10;;;16.30;99.90;;;;;;4974264;28;20475;-69
2023/05/10 09:48:46;;;;;;;1.10;0.27;;;16.30;99.90;;;;;;4974120;28;20968;-70
2023/05/10 09:51:21;;;;;;;0.60;0.20;;;16.40;99.90;;;;;;4973560;28;21009;-69
2023/05/10 09:53:50;;;;;;;0.60;0.10;;;16.40;99.90;;;;;;4973317;28;20550;-69
2023/05/10 09:56:35;;;;;;;0.60;0.10;;;16.60;99.90;;;;;;4974314;28;20473;-69
2023/05/10 09:59:03;;;;;;;0.60;0.20;;;16.80;99.90;;;;;;4973918;28;20445;-69
2023/05/10 10:01:31;;;;;;;0.60;0.10;;;17.00;99.90;;;;;;4973857;28;20487;-69
2023/05/10 10:03:59;;;;;;;0.60;0.20;;;17.10;99.90;;;;;;4973463;28;20444;-73
2023/05/10 10:06:28;;;;;;;0.70;0.20;;;17.20;99.90;;;;;;4973969;28;21044;-69
2023/05/10 10:08:57;;;;;;;0.60;0.20;;;17.20;99.90;;;;;;4973895;28;20460;-69
2023/05/10 10:11:25;;;;;;;0.70;0.30;;;17.10;99.90;;;;;;4973420;28;20481;-69
2023/05/10 10:13:55;;;;;;;0.60;0.10;;;17.00;99.90;;;;;;4973272;28;20521;-68
2023/05/10 10:16:23;;;;;;;0.60;0.10;;;16.90;99.90;;;;;;4973898;28;20504;-71
2023/05/10 10:18:51;;;;;;;0.60;0.10;;;16.90;99.90;;;;;;4974003;28;20460;-70
2023/05/10 10:21:20;;;;;;;0.60;0.10;;;17.00;99.90;;;;;;4974802;28;20442;-69
2023/05/10 10:23:48;;;;;;;0.93;0.40;;;16.80;99.90;;;;;;4973545;28;20523;-70
2023/05/10 10:26:18;;;;;;;0.60;0.10;;;16.70;99.90;;;;;;4974114;28;20478;-70
2023/05/10 10:28:51;;;;;;;0.60;0.10;;;16.60;99.90;;;;;;4973465;28;20462;-71
2023/05/10 10:31:33;;;;;;;0.60;0.20;;;16.40;99.90;;;;;;4966930;28;20511;-70
2023/05/10 10:34:06;;;;;;;0.60;0.10;;;16.40;99.90;;;;;;4973255;28;20454;-71
2023/05/10 10:36:40;;;;;;;0.90;0.47;;;16.60;99.90;;;;;;4972944;28;20472;-71
2023/05/10 10:39:11;;;;;;;0.60;0.10;;;16.60;99.90;;;;;;4973966;28;20856;-71
2023/05/10 10:41:43;;;;;;;0.60;0.10;;;16.70;99.90;;;;;;4977438;28;20441;-70
2023/05/10 10:44:25;;;;;;;0.60;0.10;;;16.80;99.90;;;;;;4973702;28;20511;-71
2023/05/10 10:47:11;;;;;;;2.40;0.30;;;16.80;99.90;;;;;;4973581;28;20474;-71
2023/05/10 10:49:44;;;;;;;0.60;0.10;;;16.80;99.90;;;;;;4974797;28;20463;-71
2023/05/10 10:52:26;;;;;;;1.33;0.63;;;16.80;99.90;;;;;;4974013;28;20491;-71
2023/05/10 10:54:58;;;;;;;0.60;0.20;;;16.70;99.90;;;;;;4973529;28;20455;-71
2023/05/10 10:57:27;;;;;;;1.37;0.57;;;16.50;99.90;;;;;;4973624;28;20462;-71
2023/05/10 11:00:19;;;;;;;0.93;0.93;;;16.60;99.90;;;;;;4974387;28;20448;-70
2023/05/10 11:02:51;;;;;;;0.60;0.23;;;16.40;99.90;;;;;;4973810;28;20454;-71
2023/05/10 11:05:36;;;;;;;0.80;0.20;;;16.30;99.90;;;;;;4973515;28;20504;-72
2023/05/10 11:08:10;;;;;;;0.60;0.10;;;16.30;99.90;;;;;;4972912;28;20827;-70
2023/05/10 11:10:38;;;;;;;0.60;0.10;;;16.40;99.90;;;;;;4973009;28;20495;-71
2023/05/10 11:13:07;;;;;;;0.60;0.17;;;16.50;99.90;;;;;;4973175;28;20454;-71
2023/05/10 11:15:37;;;;;;;0.60;0.20;;;16.50;99.90;;;;;;4972877;28;20484;-71
2023/05/10 11:18:19;;;;;;;0.60;0.30;;;16.40;99.90;;;;;;4972566;28;20528;-72
2023/05/10 11:20:52;;;;;;;0.70;0.30;;;16.40;99.90;;;;;;4990544;28;20463;-72
2023/05/10 11:23:20;;;;;;;0.60;0.10;;;16.40;99.90;;;;;;4992388;28;20911;-71
2023/05/10 11:25:50;;;;;;;0.60;0.20;;;16.40;99.90;;;;;;4994572;28;20464;-71
2023/05/10 11:28:19;;;;;;;1.00;0.20;;;16.40;99.90;;;;;;4990111;28;20454;-71
2023/05/10 11:30:47;;;;;;;0.83;0.33;;;16.60;99.90;;;;;;4973369;28;20457;-71
2023/05/10 11:33:20;;;;;;;0.60;0.10;;;16.40;99.90;;;;;;4972567;28;20543;-71
2023/05/10 11:35:48;;;;;;;0.73;0.47;;;16.60;99.90;;;;;;4972463;28;20474;-70
2023/05/10 11:38:16;;;;;;;0.60;0.10;;;16.70;99.90;;;;;;4972652;28;20449;-72
2023/05/10 11:40:44;;;;;;;0.60;0.10;;;16.90;99.90;;;;;;4972302;28;20452;-71
2023/05/10 11:43:12;;;;;;;0.60;0.17;;;16.90;99.90;;;;;;4972596;28;20441;-71
2023/05/10 11:45:42;;;;;;;0.60;0.10;;;17.00;99.90;;;;;;4973298;28;20469;-70
2023/05/10 11:48:10;;;;;;;0.60;0.20;;;17.00;99.90;;;;;;4973416;28;20451;-71
2023/05/10 11:50:39;;;;;;;0.70;0.40;;;17.00;99.90;;;;;;4973189;28;20453;-72
2023/05/10 11:53:07;;;;;;;0.60;0.10;;;17.00;99.90;;;;;;4972200;28;20530;-71
2023/05/10 11:55:35;;;;;;;0.60;0.10;;;17.10;99.90;;;;;;4972825;28;20497;-71
2023/05/10 11:58:03;;;;;;;1.63;0.80;;;17.00;99.90;;;;;;4972937;28;20466;-72
2023/05/10 12:00:32;;;;;;;0.60;0.10;;;17.00;99.90;;;;;;4973544;28;20456;-71
2023/05/10 12:03:01;;;;;;;0.60;0.10;;;17.10;99.90;;;;;;4972607;28;20452;-72
2023/05/10 12:05:33;;;;;;;0.60;0.20;;;17.10;99.90;;;;;;4972698;28;21031;-71
2023/05/10 12:08:16;;;;;;;0.70;0.57;;;17.10;99.90;;;;;;4972117;28;20450;-70
2023/05/10 12:10:44;;;;;;;0.60;0.10;;;17.00;99.90;;;;;;4973163;28;20453;-70
2023/05/10 12:13:13;;;;;;;0.60;0.10;;;17.00;99.90;;;;;;4972580;28;20860;-71
2023/05/10 12:15:42;;;;;;;0.60;0.10;;;17.00;99.90;;;;;;4972636;28;20597;-72
2023/05/10 12:18:11;;;;;;;0.60;0.10;;;17.00;99.90;;;;;;4972535;28;20445;-70
2023/05/10 12:20:39;;;;;;;0.60;0.20;;;17.10;99.90;;;;;;4972359;28;20484;-71
2023/05/10 12:23:10;;;;;;;0.60;0.10;;;17.30;99.90;;;;;;4972749;28;20500;-71
2023/05/10 12:25:39;;;;;;;0.60;0.10;;;17.40;99.90;;;;;;4972868;28;20550;-71
2023/05/10 12:28:10;;;;;;;0.60;0.20;;;17.50;99.90;;;;;;4973305;28;20504;-71
2023/05/10 12:30:39;;;;;;;0.60;0.10;;;17.60;99.90;;;;;;4980153;28;20456;-71
2023/05/10 12:33:11;;;;;;;0.60;0.10;;;17.80;99.90;;;;;;4977688;28;20498;-72
2023/05/10 12:35:46;;;;;;;0.60;0.10;;;17.90;99.90;;;;;;4977912;28;20461;-71
2023/05/10 12:38:29;;;;;;;0.60;0.10;;;18.10;99.90;;;;;;4978287;28;20876;-71
2023/05/10 12:40:59;;;;;;;0.60;0.10;;;18.40;99.90;;;;;;4979007;28;21018;-70
2023/05/10 12:43:27;;;;;;;0.60;0.20;;;18.60;99.90;;;;;;4978180;28;20441;-70
2023/05/10 12:45:55;;;;;;;0.70;0.20;;;18.80;99.90;;;;;;4979254;28;20468;-71
2023/05/10 12:48:23;;;;;;;0.60;0.13;;;18.70;99.90;;;;;;4979832;28;20512;-70
2023/05/10 12:50:50;;;;;;;0.70;0.53;;;18.80;99.90;;;;;;4978820;28;20480;-69
2023/05/10 12:53:18;;;;;;;0.60;0.10;;;18.80;99.90;;;;;;4961193;28;20913;-71
2023/05/10 12:55:46;;;;;;;0.60;0.20;;;18.90;99.90;;;;;;4958983;28;20473;-70
2023/05/10 12:58:15;;;;;;;1.43;0.77;;;18.80;99.90;;;;;;4966562;29;20938;-70
2023/05/10 13:01:02;;;;;;;0.60;0.10;;;18.70;99.90;;;;;;4963735;28;20482;-71
2023/05/10 13:03:30;;;;;;;0.60;0.20;;;;;;;;;;4975711;28;20476;-71
2023/05/10 13:05:58;;;;;;;0.60;0.20;;;18.70;99.90;;;;;;4982034;28;20466;-71
2023/05/10 13:08:26;;;;;;;0.60;0.20;;;18.70;99.90;;;;;;4984183;28;20500;-71
2023/05/10 13:10:54;;;;;;;0.60;0.10;;;18.70;99.90;;;;;;4978850;28;20453;-70
2023/05/10 13:13:23;;;;;;;0.60;0.20;;;18.80;99.90;;;;;;4978341;28;20556;-71
2023/05/10 13:15:51;;;;;;;2.20;0.33;;;18.90;99.90;;;;;;4977963;28;20497;-71
2023/05/10 13:18:19;;;;;;;0.60;0.10;;;19.10;99.90;;;;;;4978439;28;20453;-71
2023/05/10 13:20:47;;;;;;;0.60;0.10;;;19.10;99.90;;;;;;4978602;28;20546;-71
2023/05/10 13:23:15;;;;;;;1.03;0.40;;;;;;;;;;4978174;28;20532;-71
2023/05/10 13:25:43;;;;;;;0.60;0.20;;;19.00;99.90;;;;;;4978929;28;20473;-72
2023/05/10 13:28:11;;;;;;;0.60;0.20;;;19.10;99.90;;;;;;4978040;28;20484;-71
2023/05/10 13:30:40;;;;;;;0.83;0.30;;;19.20;99.90;;;;;;4978033;28;20861;-71
2023/05/10 13:33:08;;;;;;;0.70;0.47;;;18.90;99.90;;;;;;4982638;28;21015;-71
2023/05/10 13:35:36;;;;;;;0.70;0.40;;;;;;;;;;5000260;28;20502;-71
2023/05/10 13:38:04;;;;;;;0.93;0.30;;;18.20;99.90;;;;;;4999221;28;20451;-71
2023/05/10 13:40:31;;;;;;;1.63;0.50;;;18.30;99.90;;;;;;5000030;28;20448;-72
2023/05/10 13:42:59;;;;;;;0.90;0.60;;;18.20;99.90;;;;;;4992611;28;20464;-71
2023/05/10 13:45:28;;;;;;;0.60;0.20;;;;;;;;;;4980517;28;20468;-70
2023/05/10 13:47:57;;;;;;;0.90;0.60;;;18.10;99.90;;;;;;4981331;28;20444;-70
2023/05/10 13:50:25;;;;;;;0.60;0.10;;;;;;;;;;4978094;28;20451;-72
2023/05/10 13:52:53;;;;;;;0.60;0.20;;;18.60;99.90;;;;;;4977701;28;20482;-72
2023/05/10 13:55:21;;;;;;;0.90;0.30;;;18.70;99.90;;;;;;4978246;28;20456;-70
2023/05/10 13:57:49;;;;;;;0.60;0.20;;;18.70;99.90;;;;;;4978975;28;20450;-71
2023/05/10 14:00:17;;;;;;;0.60;0.10;;;18.70;99.90;;;;;;4978409;28;20965;-73
2023/05/10 14:02:45;;;;;;;0.60;0.20;;;18.90;99.90;;;;;;4979048;28;20445;-71
2023/05/10 14:05:14;;;;;;;0.97;0.43;;;18.70;99.90;;;;;;4978493;28;20508;-70
2023/05/10 14:07:42;;;;;;;0.60;0.10;;;18.60;99.90;;;;;;4977340;28;20445;-71
2023/05/10 14:10:11;;;;;;;0.60;0.20;;;;;;;;;;4978844;28;20456;-71
2023/05/10 14:12:39;;;;;;;0.60;0.20;;;18.70;99.90;;;;;;4977286;28;21053;-71
2023/05/10 14:15:10;;;;;;;0.60;0.30;;;18.70;99.90;;;;;;4977132;28;20453;-71
2023/05/10 14:17:38;;;;;;;0.60;0.20;;;18.70;99.90;;;;;;4979429;28;20544;-71
2023/05/10 14:20:07;;;;;;;0.90;0.57;;;18.50;99.90;;;;;;4980452;28;20456;-71
2023/05/10 14:22:36;;;;;;;0.70;0.30;;;18.50;99.90;;;;;;4974682;28;20446;-72
2023/05/10 14:25:04;;;;;;;0.60;0.20;;;18.60;99.90;;;;;;4976077;28;20950;-71
2023/05/10 14:27:32;;;;;;;0.60;0.30;;;18.50;99.90;;;;;;4975607;28;20450;-72
2023/05/10 14:30:00;;;;;;;4.73;0.70;;;18.60;99.90;;;;;;4979980;28;20579;-72
2023/05/10 14:32:28;;;;;;;0.60;0.20;;;18.60;99.90;;;;;;4983998;28;20565;-72
2023/05/10 14:34:56;;;;;;;0.60;0.10;;;18.80;99.90;;;;;;4978588;28;20504;-71
2023/05/10 14:37:24;;;;;;;0.60;0.20;;;;;;;;;;4977297;28;20474;-72
2023/05/10 14:39:53;;;;;;;0.90;0.40;;;19.10;99.90;;;;;;4978752;28;20496;-70
2023/05/10 14:42:22;;;;;;;0.60;0.20;;;;;;;;;;4978046;28;20449;-71
2023/05/10 14:44:49;;;;;;;0.60;0.30;;;19.20;99.90;;;;;;4979541;28;20449;-72
2023/05/10 14:47:17;;;;;;;0.60;0.10;;;19.10;99.90;;;;;;4980702;28;20476;-71
2023/05/10 14:49:47;;;;;;;0.60;0.20;;;19.00;99.90;;;;;;4997802;28;20457;-71
2023/05/10 14:52:15;;;;;;;0.60;0.20;;;19.00;99.90;;;;;;4998265;28;20512;-72
2023/05/10 14:54:43;;;;;;;0.60;0.20;;;19.10;99.90;;;;;;4959122;28;20570;-71
2023/05/10 14:57:12;;;;;;;0.80;0.30;;;19.20;99.90;;;;;;4956044;28;20480;-72
2023/05/10 14:59:40;;;;;;;1.43;0.30;;;19.10;99.90;;;;;;4961987;28;20446;-71
2023/05/10 15:02:10;;;;;;;0.60;0.10;;;19.20;99.90;;;;;;4982569;28;20926;-69
2023/05/10 15:04:38;;;;;;;1.63;0.63;;;19.40;99.90;;;;;;4985906;28;20785;-71
2023/05/10 15:07:06;;;;;;;0.60;0.20;;;19.40;99.90;;;;;;4981531;28;20477;-71
2023/05/10 15:09:34;;;;;;;0.60;0.13;;;19.50;99.90;;;;;;4983405;28;20446;-70
2023/05/10 15:12:02;;;;;;;0.70;0.30;;;19.60;99.90;;;;;;4981842;28;20446;-74
2023/05/10 15:14:32;;;;;;;2.67;0.53;;;19.60;99.90;;;;;;4982555;28;20477;-71
2023/05/10 15:17:00;;;;;;;0.60;0.10;;;19.50;99.90;;;;;;4973435;28;21048;-72
2023/05/10 15:19:29;;;;;;;0.60;0.20;;;19.50;99.90;;;;;;4976244;28;20457;-71
2023/05/10 15:21:56;;;;;;;0.70;0.40;;;19.60;99.90;;;;;;4978308;28;20453;-71
2023/05/10 15:24:24;;;;;;;0.60;0.10;;;19.50;99.90;;;;;;4973451;28;20446;-73
2023/05/10 15:26:52;;;;;;;0.90;0.40;;;19.50;99.90;;;;;;4973908;28;20523;-72
2023/05/10 15:29:20;;;;;;;0.70;0.37;;;19.60;99.90;;;;;;4973706;28;20449;-73
2023/05/10 15:31:51;;;;;;;0.60;0.20;;;19.50;99.90;;;;;;4973694;28;20470;-72
2023/05/10 15:34:19;;;;;;;0.60;0.20;;;19.60;99.90;;;;;;4974280;28;20482;-72
2023/05/10 15:36:47;;;;;;;0.60;0.10;;;19.70;99.90;;;;;;4973736;28;20521;-71
2023/05/10 15:39:14;;;;;;;0.70;0.40;;;19.50;99.90;;;;;;4973783;28;20453;-71
2023/05/10 15:41:43;;;;;;;1.87;0.50;;;;;;;;;;4973566;28;20453;-71
2023/05/10 15:44:10;;;;;;;0.60;0.10;;;19.10;99.90;;;;;;4976004;28;20456;-72
2023/05/10 15:46:38;;;;;;;1.03;0.50;;;19.20;99.90;;;;;;4983058;28;20515;-72
2023/05/10 15:49:08;;;;;;;0.67;0.17;;;19.10;99.90;;;;;;4984548;28;20476;-72
2023/05/10 15:51:36;;;;;;;0.60;0.10;;;19.10;99.90;;;;;;4975655;28;20512;-72
2023/05/10 15:54:06;;;;;;;0.70;0.23;;;19.10;99.90;;;;;;4974472;28;20478;-72
2023/05/10 15:56:35;;;;;;;0.60;0.20;;;18.90;99.90;;;;;;4975817;28;20462;-71
2023/05/10 15:59:04;;;;;;;3.53;0.30;;;18.70;99.90;;;;;;4968897;28;20467;-72
2023/05/10 16:01:32;;;;;;;0.60;0.30;;;18.60;99.90;;;;;;4969012;28;21161;-72
2023/05/10 16:04:00;;;;;;;0.60;0.40;;;18.70;99.90;;;;;;4973598;28;20547;-71
2023/05/10 16:06:30;;;;;;;0.70;0.40;;;18.60;99.90;;;;;;4978461;28;20477;-71
2023/05/10 16:08:58;;;;;;;0.60;0.20;;;18.40;99.90;;;;;;4978046;28;21017;-72
2023/05/10 16:11:26;;;;;;;0.60;0.30;;;18.40;99.90;;;;;;4976407;28;20469;-72
2023/05/10 16:13:54;;;;;;;0.60;0.20;;;18.40;99.90;;;;;;4972410;28;20499;-72
2023/05/10 16:16:22;;;;;;;0.80;0.63;;;;;;;;;;4990663;23;20493;-77
2023/05/10 16:18:51;;;;;;;0.60;0.20;;;18.30;99.90;;;;;;4965579;29;20469;-77
2023/05/10 16:21:19;;;;;;;0.60;0.20;;;18.50;99.90;;;;;;4957625;28;20465;-75
2023/05/10 16:23:48;;;;;;;0.60;0.17;;;18.40;99.90;;;;;;4960569;28;20545;-78
2023/05/10 16:26:16;;;;;;;1.10;0.30;;;18.50;99.90;;;;;;4959908;28;20465;-75
2023/05/10 16:28:44;;;;;;;0.60;0.30;;;18.50;99.90;;;;;;4959021;28;20446;-75
2023/05/10 16:31:12;;;;;;;0.60;0.20;;;18.50;99.90;;;;;;4959481;29;20457;-77
2023/05/10 16:33:40;;;;;;;0.60;0.10;;;18.50;99.90;;;;;;4960635;28;20455;-77
2023/05/10 16:36:08;;;;;;;0.60;0.20;;;18.50;99.90;;;;;;4960158;28;20521;-76
2023/05/10 16:38:36;;;;;;;0.60;0.10;;;18.50;99.90;;;;;;4959865;28;20450;-77
2023/05/10 16:41:05;;;;;;;0.60;0.20;;;18.50;99.90;;;;;;4958648;29;20533;-78
2023/05/10 16:43:33;;;;;;;0.60;0.20;;;18.50;99.90;;;;;;4958802;28;20465;-77
2023/05/10 16:46:01;;;;;;;0.60;0.30;;;18.50;99.90;;;;;;4959274;28;20481;-77
2023/05/10 16:48:29;;;;;;;0.60;0.10;;;18.50;99.90;;;;;;4958140;28;20451;-77
2023/05/10 16:50:57;;;;;;;0.60;0.20;;;18.60;99.90;;;;;;4957995;28;20451;-76
2023/05/10 16:53:25;;;;;;;0.60;0.20;;;18.50;99.90;;;;;;4958809;29;20469;-77
2023/05/10 16:55:53;;;;;;;0.60;0.10;;;18.50;99.90;;;;;;4959325;28;20488;-78
2023/05/10 16:58:22;;;;;;;0.60;0.10;;;18.60;99.90;;;;;;4958677;28;20462;-78
2023/05/10 17:00:50;;;;;;;1.30;0.63;;;18.60;99.90;;;;;;4959448;28;20871;-76
2023/05/10 17:03:18;;;;;;;0.60;0.10;;;18.80;99.90;;;;;;4961418;28;20462;-74
2023/05/10 17:05:46;;;;;;;0.60;0.20;;;18.80;99.90;;;;;;4959564;29;20875;-76